Time;durP1;ratioP1;P1;durP2;ratioP2;P2;SDS_P1;SDS_P2;PMS_P1;PMS_P2;Temp;Humidity;BMP_temperature;BMP_pressure;BME280_temperature;BME280_humidity;BME280_pressure;Samples;Min_cycle;Max_cycle;Signal;HPM_P1;HPM_P2
2022/11/09 06:03:53;;;;;;;12.50;7.22;;;10.50;99.90;;;;;;4976974;28;20082;-77
2022/11/09 06:06:18;;;;;;;13.40;7.35;;;10.40;99.90;;;;;;4985833;28;20308;-76
2022/11/09 06:08:44;;;;;;;12.95;7.40;;;10.40;99.90;;;;;;4986340;28;20133;-76
2022/11/09 06:11:11;;;;;;;14.55;7.03;;;10.40;99.90;;;;;;4984708;28;20031;-77
2022/11/09 06:13:37;;;;;;;10.60;6.38;;;10.40;99.90;;;;;;4985758;28;20030;-77
2022/11/09 06:16:04;;;;;;;12.05;6.28;;;10.40;99.90;;;;;;4985759;28;20030;-76
2022/11/09 06:18:31;;;;;;;15.70;9.75;;;10.50;99.90;;;;;;4986035;28;20304;-76
2022/11/09 06:20:59;;;;;;;14.55;8.57;;;10.50;99.90;;;;;;4985785;28;20027;-76
2022/11/09 06:23:25;;;;;;;14.82;7.75;;;10.50;99.90;;;;;;4985252;28;20038;-75
2022/11/09 06:26:15;;;;;;;10.40;6.78;;;10.50;99.90;;;;;;4984584;28;20081;-76
2022/11/09 06:28:41;;;;;;;11.63;6.45;;;10.50;99.90;;;;;;4952657;28;20038;-75
2022/11/09 06:31:12;;;;;;;34.78;23.42;;;10.50;99.90;;;;;;4985057;28;20035;-74
2022/11/09 06:33:41;;;;;;;14.25;9.18;;;10.60;99.90;;;;;;4984810;28;20041;-76
2022/11/09 06:36:08;;;;;;;14.07;7.15;;;10.60;99.90;;;;;;4985044;28;20027;-75
2022/11/09 06:38:34;;;;;;;12.70;6.13;;;10.60;99.90;;;;;;4952197;28;20173;-74
2022/11/09 06:41:00;;;;;;;14.05;6.03;;;10.60;99.90;;;;;;4984346;28;20038;-74
2022/11/09 06:43:26;;;;;;;11.45;6.00;;;10.60;99.90;;;;;;4983949;28;20038;-75
2022/11/09 06:45:53;;;;;;;10.32;6.05;;;10.70;99.90;;;;;;4984139;28;20291;-77
2022/11/09 06:48:19;;;;;;;10.48;6.18;;;10.60;99.90;;;;;;4983905;28;20041;-75
2022/11/09 06:50:45;;;;;;;33.15;22.55;;;10.60;99.90;;;;;;4952356;28;20031;-76
2022/11/09 06:53:15;;;;;;;16.35;11.27;;;10.70;99.90;;;;;;4951768;28;20027;-75
2022/11/09 06:55:45;;;;;;;13.60;8.30;;;10.70;99.90;;;;;;4985366;28;20049;-75
2022/11/09 06:58:15;;;;;;;12.55;7.03;;;10.70;99.90;;;;;;4985043;28;20019;-76
2022/11/09 07:00:42;;;;;;;16.75;8.35;;;10.70;99.90;;;;;;4985549;28;20305;-76
2022/11/09 07:03:13;;;;;;;11.60;6.75;;;10.80;99.90;;;;;;4984325;28;20046;-77
2022/11/09 07:05:38;;;;;;;10.68;7.00;;;10.80;99.90;;;;;;4984252;28;20138;-77
2022/11/09 07:08:04;;;;;;;10.75;6.88;;;10.80;99.90;;;;;;4983266;28;20122;-76
2022/11/09 07:10:30;;;;;;;11.00;7.10;;;10.80;99.90;;;;;;4967582;28;20035;-77
2022/11/09 07:12:57;;;;;;;13.13;7.28;;;10.90;99.90;;;;;;4968020;28;20030;-76
2022/11/09 07:15:23;;;;;;;11.50;7.35;;;10.90;99.90;;;;;;4967276;28;20031;-76
2022/11/09 07:17:49;;;;;;;20.27;10.98;;;11.00;99.90;;;;;;4967748;28;20065;-77
2022/11/09 07:20:15;;;;;;;17.35;9.52;;;11.00;99.90;;;;;;4984156;28;20031;-75
2022/11/09 07:22:43;;;;;;;14.20;8.10;;;11.10;99.90;;;;;;4951902;28;20027;-76
2022/11/09 07:25:10;;;;;;;;;;;11.10;99.90;;;;;;4985081;28;20106;-75
2022/11/09 07:27:36;;;;;;;9.70;5.88;;;11.20;99.90;;;;;;4967675;28;20191;-76
2022/11/09 07:30:03;;;;;;;11.02;6.50;;;11.10;99.90;;;;;;4984552;28;20128;-75
2022/11/09 07:32:35;;;;;;;11.77;6.93;;;11.10;99.90;;;;;;4984002;28;20046;-77
2022/11/09 07:35:13;;;;;;;8.38;5.80;;;11.00;99.90;;;;;;4967400;28;20041;-76
2022/11/09 07:37:41;;;;;;;8.68;5.88;;;11.10;99.90;;;;;;4963758;28;20091;-75
2022/11/09 07:40:08;;;;;;;12.75;6.32;;;11.10;99.90;;;;;;4983912;28;20074;-76
2022/11/09 07:42:36;;;;;;;9.55;5.72;;;11.10;99.90;;;;;;4950563;28;20091;-75
2022/11/09 07:45:02;;;;;;;11.82;5.45;;;11.10;99.90;;;;;;4983755;28;20354;-76
2022/11/09 07:47:28;;;;;;;9.48;5.88;;;11.20;99.90;;;;;;4980316;28;20039;-76
2022/11/09 07:49:54;;;;;;;10.23;5.88;;;11.20;99.90;;;;;;4977458;28;20037;-75
2022/11/09 07:52:20;;;;;;;10.07;5.80;;;11.30;99.90;;;;;;4958162;28;20267;-75
2022/11/09 07:54:45;;;;;;;9.05;6.47;;;11.40;99.90;;;;;;4964477;28;20137;-76
2022/11/09 07:57:11;;;;;;;11.05;6.57;;;11.40;99.90;;;;;;4960392;29;20022;-75
2022/11/09 07:59:37;;;;;;;10.27;5.90;;;11.50;99.90;;;;;;4965318;28;20069;-75
2022/11/09 08:02:03;;;;;;;13.48;6.47;;;11.60;99.90;;;;;;4965172;28;20211;-74
2022/11/09 08:04:29;;;;;;;10.13;6.47;;;11.60;99.90;;;;;;4948752;28;20308;-74
2022/11/09 08:06:55;;;;;;;15.45;7.65;;;11.70;99.90;;;;;;4964910;28;20058;-75
2022/11/09 08:09:21;;;;;;;12.77;6.57;;;11.70;99.90;;;;;;4948562;28;20331;-78
2022/11/09 08:11:47;;;;;;;9.80;5.93;;;11.60;99.90;;;;;;4964859;28;20023;-76
2022/11/09 08:14:13;;;;;;;8.57;5.50;;;11.70;99.90;;;;;;4980542;28;20402;-75
2022/11/09 08:16:39;;;;;;;13.15;6.10;;;11.70;99.90;;;;;;4964507;28;20030;-76
2022/11/09 08:19:07;;;;;;;11.77;5.90;;;11.70;99.90;;;;;;4965226;28;20061;-74
2022/11/09 08:21:35;;;;;;;10.73;6.40;;;11.80;99.90;;;;;;4963833;28;20031;-76
2022/11/09 08:24:01;;;;;;;13.65;6.53;;;11.80;99.90;;;;;;4949255;28;20027;-76
2022/11/09 08:26:29;;;;;;;13.45;7.50;;;11.90;99.90;;;;;;4981738;28;20041;-77
2022/11/09 08:28:55;;;;;;;;;;;11.90;99.90;;;;;;4965531;28;20087;-76
2022/11/09 08:31:21;;;;;;;14.48;7.45;;;11.90;99.90;;;;;;4981679;28;19902;-76
2022/11/09 08:33:47;;;;;;;14.98;8.00;;;12.00;99.90;;;;;;4964577;28;20094;-76
2022/11/09 08:36:15;;;;;;;17.52;8.75;;;12.00;99.90;;;;;;4964647;28;20027;-75
2022/11/09 08:38:43;;;;;;;17.65;9.02;;;12.10;99.90;;;;;;4949937;29;20095;-76
2022/11/09 08:41:15;;;;;;;18.30;7.75;;;12.10;99.90;;;;;;4929700;29;20023;-77
2022/11/09 08:43:40;;;;;;;15.02;7.20;;;12.20;99.90;;;;;;4945568;29;20344;-74
2022/11/09 08:46:06;;;;;;;14.90;7.93;;;12.20;99.90;;;;;;4961738;29;20106;-76
2022/11/09 08:48:32;;;;;;;12.60;7.13;;;12.30;99.90;;;;;;4929346;29;20444;-74
2022/11/09 08:50:59;;;;;;;14.00;5.15;;;12.30;99.90;;;;;;4961520;29;20038;-75
2022/11/09 08:53:26;;;;;;;8.80;4.43;;;12.50;99.90;;;;;;4945044;29;20037;-73
2022/11/09 08:55:52;;;;;;;9.03;5.13;;;12.60;99.90;;;;;;4961608;28;20030;-74
2022/11/09 08:58:21;;;;;;;10.43;4.88;;;12.70;99.90;;;;;;4980198;28;20320;-77
2022/11/09 09:00:47;;;;;;;8.13;4.53;;;12.90;99.90;;;;;;4980606;28;20061;-76
2022/11/09 09:03:13;;;;;;;8.82;3.95;;;13.00;99.90;;;;;;4976450;28;20043;-77
2022/11/09 09:05:39;;;;;;;8.75;4.57;;;13.10;99.90;;;;;;4961507;29;20094;-75
2022/11/09 09:08:05;;;;;;;8.35;3.72;;;13.20;99.90;;;;;;4961489;29;20108;-76
2022/11/09 09:10:45;;;;;;;7.47;4.00;;;13.20;99.90;;;;;;4960960;29;20023;-76
2022/11/09 09:13:14;;;;;;;8.70;3.95;;;13.20;99.90;;;;;;4960476;28;20047;-75
2022/11/09 09:16:12;;;;;;;8.38;3.95;;;13.10;99.90;;;;;;4961323;29;20067;-75
2022/11/09 09:18:46;;;;;;;6.88;3.90;;;13.10;99.90;;;;;;4961939;29;20081;-75
2022/11/09 09:21:14;;;;;;;10.98;5.20;;;13.00;99.90;;;;;;4962207;28;20035;-76
2022/11/09 09:23:40;;;;;;;12.30;5.40;;;13.00;99.90;;;;;;4962070;28;20109;-75
2022/11/09 09:26:48;;;;;;;9.65;5.47;;;12.90;99.90;;;;;;4977027;28;20179;-76
2022/11/09 09:29:13;;;;;;;11.00;5.00;;;12.90;99.90;;;;;;4907571;28;20203;-76
2022/11/09 09:31:45;;;;;;;9.00;5.32;;;12.90;99.90;;;;;;4966165;28;20050;-76
2022/11/09 09:34:14;;;;;;;10.00;5.10;;;12.90;99.90;;;;;;4965586;29;20031;-77
2022/11/09 09:36:46;;;;;;;8.75;4.70;;;13.00;99.90;;;;;;4964837;29;20031;-77
2022/11/09 09:39:12;;;;;;;8.35;4.10;;;13.10;99.90;;;;;;4946617;29;20027;-76
2022/11/09 09:42:00;;;;;;;5.97;4.00;;;13.20;99.90;;;;;;4946990;29;20061;-76
2022/11/09 09:44:31;;;;;;;7.80;3.70;;;13.30;99.90;;;;;;4929349;29;20047;-75
2022/11/09 09:47:35;;;;;;;7.40;4.07;;;13.50;99.90;;;;;;4946842;29;20032;-75
2022/11/09 09:50:22;;;;;;;6.05;3.40;;;13.70;99.90;;;;;;4946315;29;20027;-76
2022/11/09 09:53:27;;;;;;;5.85;3.13;;;13.90;99.90;;;;;;4946359;29;20039;-77
2022/11/09 09:56:17;;;;;;;9.63;4.18;;;14.00;99.90;;;;;;4959346;29;20221;-78
2022/11/09 09:59:24;;;;;;;5.93;2.92;;;14.20;99.90;;;;;;4980753;28;20058;-76
2022/11/09 10:02:14;;;;;;;6.03;3.22;;;14.40;99.90;;;;;;4967149;28;20320;-77
2022/11/09 10:04:44;;;;;;;6.88;3.50;;;14.60;99.90;;;;;;4983695;28;20046;-75
2022/11/09 10:07:34;;;;;;;8.05;3.15;;;14.70;99.90;;;;;;4984598;28;20150;-76
2022/11/09 10:10:19;;;;;;;6.88;2.80;;;14.70;99.90;;;;;;4983697;28;20050;-75
2022/11/09 10:12:57;;;;;;;5.18;2.63;;;14.70;99.90;;;;;;4984983;28;20049;-76
2022/11/09 10:15:50;;;;;;;5.40;2.92;;;14.80;99.90;;;;;;4983361;28;20110;-76
2022/11/09 10:18:27;;;;;;;4.95;2.42;;;14.90;99.90;;;;;;4984099;28;20061;-76
2022/11/09 10:21:16;;;;;;;4.85;2.47;;;14.90;99.90;;;;;;4984646;28;20101;-76
2022/11/09 10:23:48;;;;;;;4.35;2.10;;;15.00;99.90;;;;;;4984380;28;20034;-77
2022/11/09 10:26:41;;;;;;;4.43;2.40;;;15.00;99.90;;;;;;4983041;28;20038;-76
2022/11/09 10:29:34;;;;;;;5.72;2.20;;;15.00;99.90;;;;;;4984722;28;20023;-77
2022/11/09 10:32:18;;;;;;;4.97;2.45;;;15.10;99.90;;;;;;4984442;28;20054;-76
2022/11/09 10:35:36;;;;;;;5.90;2.40;;;15.20;99.90;;;;;;4984188;28;20041;-77
2022/11/09 10:38:42;;;;;;;3.72;2.20;;;15.40;99.90;;;;;;4913689;29;20283;-76
2022/11/09 10:41:40;;;;;;;5.53;2.10;;;15.60;99.90;;;;;;4878770;29;20035;-76
2022/11/09 10:44:39;;;;;;;3.67;2.03;;;15.70;99.90;;;;;;4984080;28;20248;-77
2022/11/09 10:47:27;;;;;;;3.67;1.50;;;15.90;99.90;;;;;;4983860;28;20081;-77
2022/11/09 10:54:17;;;;;;;3.67;1.67;;;16.00;99.90;;;;;;4984156;28;20225;-76
2022/11/09 10:57:20;;;;;;;3.60;1.90;;;15.80;99.90;;;;;;4983853;28;20070;-76
2022/11/09 11:00:07;;;;;;;4.57;1.60;;;15.90;99.90;;;;;;4983798;28;20046;-76
2022/11/09 11:02:55;;;;;;;5.38;1.85;;;15.90;99.90;;;;;;4983546;28;20362;-76
2022/11/09 11:05:40;;;;;;;4.90;1.75;;;15.90;99.90;;;;;;4964742;29;20078;-76
2022/11/09 11:08:29;;;;;;;5.20;1.85;;;15.80;99.90;;;;;;4964238;29;20226;-78
2022/11/09 11:11:21;;;;;;;4.28;1.70;;;15.70;99.90;;;;;;4963826;29;20091;-77
2022/11/09 11:14:30;;;;;;;4.57;2.00;;;15.90;99.90;;;;;;4964353;29;20079;-76
2022/11/09 11:17:26;;;;;;;3.42;1.40;;;15.90;99.90;;;;;;4964099;29;20173;-76
2022/11/09 11:20:44;;;;;;;5.53;2.05;;;16.10;99.90;;;;;;4963938;29;20071;-78
2022/11/09 11:23:29;;;;;;;4.07;1.75;;;16.30;99.90;;;;;;4976481;28;20046;-77
2022/11/09 11:26:50;;;;;;;3.78;1.50;;;16.30;99.90;;;;;;4963619;29;20038;-76
2022/11/09 11:29:51;;;;;;;4.38;1.92;;;16.40;99.90;;;;;;4963839;29;20067;-76
2022/11/09 11:32:41;;;;;;;3.92;1.77;;;16.50;99.90;;;;;;4949740;29;20042;-76
2022/11/09 11:35:41;;;;;;;3.72;1.75;;;16.60;99.90;;;;;;4976195;28;20379;-77
2022/11/09 11:39:00;;;;;;;3.45;1.80;;;16.70;99.90;;;;;;4975423;28;20030;-77
2022/11/09 11:42:22;;;;;;;5.05;1.70;;;16.60;99.90;;;;;;4983361;28;20026;-76
2022/11/09 11:45:46;;;;;;;2.85;1.70;;;16.40;99.90;;;;;;4983398;28;20102;-76
2022/11/09 11:48:41;;;;;;;2.85;1.52;;;16.10;99.90;;;;;;4968967;28;20038;-76
2022/11/09 11:51:43;;;;;;;3.88;1.85;;;16.10;99.90;;;;;;4980971;28;20081;-79
2022/11/09 11:54:53;;;;;;;4.35;1.80;;;16.00;99.90;;;;;;4982658;28;20065;-79
2022/11/09 11:58:16;;;;;;;4.32;1.95;;;16.00;99.90;;;;;;4963133;28;20057;-79
2022/11/09 12:01:21;;;;;;;3.85;1.90;;;16.00;99.90;;;;;;4982628;28;20335;-78
2022/11/09 12:04:43;;;;;;;4.45;1.80;;;16.20;99.90;;;;;;4981777;28;20046;-77
2022/11/09 12:11:28;;;;;;;4.85;2.22;;;16.40;99.90;;;;;;4982770;28;20041;-76
2022/11/09 12:14:43;;;;;;;4.25;2.22;;;16.60;99.90;;;;;;4982229;28;20106;-76
2022/11/09 12:18:03;;;;;;;3.92;2.10;;;16.60;99.90;;;;;;4982435;28;20046;-79
2022/11/09 12:21:14;;;;;;;5.10;1.90;;;16.70;99.90;;;;;;4982633;28;20117;-77
2022/11/09 12:23:58;;;;;;;4.25;1.80;;;16.80;99.90;;;;;;4967941;28;20081;-76
2022/11/09 12:27:07;;;;;;;4.53;1.92;;;16.90;99.90;;;;;;4982676;28;20088;-75
2022/11/09 12:30:23;;;;;;;3.92;1.67;;;16.70;99.90;;;;;;4982513;28;20034;-76
2022/11/09 12:33:55;;;;;;;5.18;2.47;;;16.60;99.90;;;;;;4981889;28;20038;-75
2022/11/09 12:36:54;;;;;;;5.53;2.17;;;16.70;99.90;;;;;;4967823;28;20335;-78
2022/11/09 12:39:49;;;;;;;4.15;1.80;;;16.80;99.90;;;;;;4961953;29;20075;-75
2022/11/09 12:42:54;;;;;;;2.97;1.17;;;16.90;99.90;;;;;;4969314;28;20076;-76
2022/11/09 12:45:39;;;;;;;2.80;1.27;;;17.00;99.90;;;;;;4978314;28;20045;-75
2022/11/09 12:48:30;;;;;;;2.72;1.23;;;17.10;99.90;;;;;;4961761;29;20095;-76
2022/11/09 12:51:15;;;;;;;3.58;1.25;;;17.20;99.90;;;;;;4970867;28;20037;-75
2022/11/09 12:54:08;;;;;;;2.55;1.30;;;17.20;99.90;;;;;;4981840;28;20038;-74
2022/11/09 12:57:04;;;;;;;2.40;1.10;;;17.40;99.90;;;;;;4980639;28;20048;-75
2022/11/09 12:59:54;;;;;;;2.33;0.95;;;17.50;99.90;;;;;;4981742;28;20037;-77
2022/11/09 13:02:52;;;;;;;2.25;1.13;;;17.60;99.90;;;;;;4981300;28;20058;-76
2022/11/09 13:05:38;;;;;;;2.58;1.00;;;17.70;99.90;;;;;;4962745;29;20102;-77
2022/11/09 13:08:28;;;;;;;2.38;1.10;;;17.60;99.90;;;;;;4962009;29;20042;-75
2022/11/09 13:11:49;;;;;;;3.13;1.08;;;17.60;99.90;;;;;;4961867;29;20030;-75
2022/11/09 13:14:36;;;;;;;2.72;1.33;;;17.60;99.90;;;;;;4945845;29;20141;-78
2022/11/09 13:17:23;;;;;;;4.75;2.20;;;17.30;99.90;;;;;;4966386;28;20041;-75
2022/11/09 13:20:46;;;;;;;6.97;2.53;;;17.20;99.90;;;;;;4981026;28;20046;-74
2022/11/09 13:23:36;;;;;;;3.95;1.65;;;17.10;99.90;;;;;;4981834;28;20143;-75
2022/11/09 13:26:22;;;;;;;4.05;1.30;;;17.20;99.90;;;;;;4981529;28;20034;-77
2022/11/09 13:29:42;;;;;;;4.82;1.77;;;17.20;99.90;;;;;;4981684;28;20342;-75
2022/11/09 13:32:31;;;;;;;3.03;1.23;;;17.20;99.90;;;;;;4902966;29;20051;-75
2022/11/09 13:35:52;;;;;;;4.80;1.52;;;17.20;99.90;;;;;;4966336;28;20042;-74
2022/11/09 13:38:36;;;;;;;3.10;1.50;;;17.20;99.90;;;;;;4903384;29;20036;-74
2022/11/09 13:41:33;;;;;;;4.07;1.48;;;17.20;99.90;;;;;;4961750;29;20082;-74
2022/11/09 13:44:26;;;;;;;5.13;1.50;;;17.20;99.90;;;;;;4961592;29;20444;-76
2022/11/09 13:47:24;;;;;;;4.50;1.67;;;17.20;99.90;;;;;;4961937;29;20046;-74
2022/11/09 13:50:25;;;;;;;2.17;1.13;;;17.10;99.90;;;;;;4962047;29;20058;-76
2022/11/09 13:53:35;;;;;;;3.85;1.63;;;17.00;99.90;;;;;;4961810;29;20038;-76
2022/11/09 13:56:29;;;;;;;5.68;1.77;;;16.90;99.90;;;;;;4968088;28;20042;-77
2022/11/09 13:59:26;;;;;;;3.03;1.25;;;16.90;99.90;;;;;;4961283;29;20034;-77
2022/11/09 14:02:24;;;;;;;3.17;1.20;;;16.80;99.90;;;;;;4961319;29;20351;-75
2022/11/09 14:05:33;;;;;;;2.55;1.00;;;16.70;99.90;;;;;;4979945;28;20097;-74
2022/11/09 14:08:24;;;;;;;3.63;1.40;;;16.70;99.90;;;;;;4980925;28;20101;-75
2022/11/09 14:11:36;;;;;;;3.92;1.77;;;16.60;99.90;;;;;;4980072;28;20026;-75
2022/11/09 14:14:50;;;;;;;4.10;1.60;;;16.50;99.90;;;;;;4982084;28;20290;-73
2022/11/09 14:18:06;;;;;;;4.80;2.45;;;16.40;99.90;;;;;;4965267;29;20077;-73
2022/11/09 14:20:57;;;;;;;3.10;1.58;;;16.40;99.90;;;;;;4965213;29;20046;-74
2022/11/09 14:23:46;;;;;;;4.30;2.17;;;16.30;99.90;;;;;;4965208;29;20034;-74
2022/11/09 14:26:31;;;;;;;3.50;2.10;;;16.20;99.90;;;;;;4964763;29;20034;-75
2022/11/09 14:29:23;;;;;;;7.32;4.70;;;16.10;99.90;;;;;;4963285;29;20030;-74
2022/11/09 14:32:29;;;;;;;6.05;2.55;;;16.10;99.90;;;;;;4964571;29;20384;-73
2022/11/09 14:35:35;;;;;;;6.07;3.45;;;16.00;99.90;;;;;;4963967;29;20106;-72
2022/11/09 14:38:46;;;;;;;6.55;3.70;;;16.00;99.90;;;;;;4976282;28;20041;-73
2022/11/09 14:41:30;;;;;;;5.45;2.63;;;15.90;99.90;;;;;;4983461;28;20045;-74
2022/11/09 14:44:24;;;;;;;4.38;1.88;;;15.90;99.90;;;;;;4983280;28;20113;-73
2022/11/09 14:47:16;;;;;;;3.08;1.83;;;15.80;99.90;;;;;;4983966;28;20105;-74
2022/11/09 14:50:00;;;;;;;3.10;1.90;;;15.70;99.90;;;;;;4984062;28;20134;-74
2022/11/09 14:52:45;;;;;;;4.68;2.22;;;15.70;99.90;;;;;;4984041;28;20098;-73
2022/11/09 14:55:31;;;;;;;5.18;2.75;;;15.60;99.90;;;;;;4983263;28;20261;-73
2022/11/09 14:58:18;;;;;;;3.95;2.40;;;15.60;99.90;;;;;;4983489;28;20042;-72
2022/11/09 15:01:29;;;;;;;4.53;2.38;;;15.50;99.90;;;;;;4983334;28;20099;-73
2022/11/09 15:04:18;;;;;;;5.50;2.20;;;15.50;99.90;;;;;;4982996;28;20049;-73
2022/11/09 15:07:15;;;;;;;4.05;2.03;;;15.40;99.90;;;;;;4983294;28;20342;-74
2022/11/09 15:10:05;;;;;;;4.00;2.30;;;15.30;99.90;;;;;;4983515;28;20057;-73
2022/11/09 15:12:53;;;;;;;4.20;2.10;;;15.30;99.90;;;;;;4983516;28;20041;-72
2022/11/09 15:15:38;;;;;;;4.50;2.30;;;15.20;99.90;;;;;;4983691;28;20058;-71
2022/11/09 15:18:30;;;;;;;4.03;1.88;;;15.20;99.90;;;;;;4982758;28;20097;-73
2022/11/09 15:21:19;;;;;;;3.45;2.00;;;15.20;99.90;;;;;;4982744;28;20033;-71
2022/11/09 15:24:03;;;;;;;;;;;15.10;99.90;;;;;;4984016;28;20041;-72
2022/11/09 15:26:49;;;;;;;4.45;2.20;;;15.00;99.90;;;;;;4982665;28;19953;-72
2022/11/09 15:29:42;;;;;;;4.85;1.70;;;15.00;99.90;;;;;;4982913;28;20039;-73
2022/11/09 15:32:28;;;;;;;5.03;2.15;;;15.00;99.90;;;;;;4982804;28;20142;-71
2022/11/09 15:35:17;;;;;;;3.88;2.03;;;14.90;99.90;;;;;;4981603;28;20493;-72
2022/11/09 15:38:02;;;;;;;6.07;2.63;;;14.90;99.90;;;;;;4983325;28;20097;-72
2022/11/09 15:40:46;;;;;;;6.30;2.33;;;14.90;99.90;;;;;;4983080;28;20137;-73
2022/11/09 15:43:31;;;;;;;3.78;1.80;;;14.90;99.90;;;;;;4982639;28;20094;-72
2022/11/09 15:46:27;;;;;;;4.28;1.73;;;14.80;99.90;;;;;;4967920;28;20038;-72
2022/11/09 15:49:16;;;;;;;5.82;1.60;;;14.80;99.90;;;;;;4982523;28;20045;-71
2022/11/09 15:52:00;;;;;;;3.80;1.90;;;14.80;99.90;;;;;;4982649;28;20061;-72
2022/11/09 15:54:44;;;;;;;8.48;5.03;;;14.70;99.90;;;;;;4982658;28;20065;-73
2022/11/09 15:57:28;;;;;;;4.00;1.80;;;14.70;99.90;;;;;;4982269;28;20114;-74
2022/11/09 16:00:16;;;;;;;4.00;1.80;;;14.60;99.90;;;;;;4982376;28;20070;-72
2022/11/09 16:03:00;;;;;;;5.43;1.83;;;14.60;99.90;;;;;;4982652;28;20061;-74
2022/11/09 16:05:44;;;;;;;3.45;1.90;;;14.60;99.90;;;;;;4982842;28;20034;-73
2022/11/09 16:08:29;;;;;;;4.30;2.50;;;14.50;99.90;;;;;;4982196;28;20343;-73
2022/11/09 16:11:14;;;;;;;5.07;2.25;;;14.50;99.90;;;;;;4982087;28;20347;-72
2022/11/09 16:14:00;;;;;;;4.03;1.90;;;14.50;99.90;;;;;;4981371;28;20216;-72
2022/11/09 16:16:44;;;;;;;4.47;2.20;;;14.40;99.90;;;;;;4982624;28;20073;-73
2022/11/09 16:19:28;;;;;;;4.45;2.20;;;14.30;99.90;;;;;;4981289;28;20041;-72
2022/11/09 16:22:12;;;;;;;6.03;3.08;;;14.30;99.90;;;;;;4982417;28;20066;-73
2022/11/09 16:24:57;;;;;;;4.68;2.13;;;14.20;99.90;;;;;;4982667;28;20082;-74
2022/11/09 16:27:42;;;;;;;3.35;2.00;;;14.20;99.90;;;;;;4982648;28;20033;-74
2022/11/09 16:30:27;;;;;;;5.88;2.13;;;14.20;99.90;;;;;;4982413;28;20098;-73
2022/11/09 16:33:11;;;;;;;13.45;8.00;;;14.20;99.90;;;;;;4981457;28;20392;-74
2022/11/09 16:35:59;;;;;;;10.95;6.15;;;14.20;99.90;;;;;;4982218;28;20038;-72
2022/11/09 16:38:47;;;;;;;12.07;7.35;;;14.20;99.90;;;;;;4982325;28;20213;-72
2022/11/09 16:41:31;;;;;;;10.50;5.72;;;14.10;99.90;;;;;;4981511;28;20085;-72
2022/11/09 16:44:20;;;;;;;6.90;4.68;;;14.10;99.90;;;;;;4982060;28;20382;-73
2022/11/09 16:47:08;;;;;;;8.63;4.78;;;14.10;99.90;;;;;;4982381;28;20070;-73
2022/11/09 16:49:52;;;;;;;9.95;5.00;;;14.10;99.90;;;;;;4982440;28;20033;-75
2022/11/09 16:52:37;;;;;;;8.23;5.07;;;14.00;99.90;;;;;;4982469;28;20086;-73
2022/11/09 16:55:21;;;;;;;8.05;4.35;;;14.00;99.90;;;;;;4981590;28;20037;-73
2022/11/09 16:58:06;;;;;;;6.07;3.67;;;14.00;99.90;;;;;;4982005;28;20220;-72
2022/11/09 17:00:51;;;;;;;8.98;3.85;;;13.90;99.90;;;;;;4981989;28;20034;-72
2022/11/09 17:03:35;;;;;;;9.50;3.72;;;13.90;99.90;;;;;;4983088;28;20113;-72
2022/11/09 17:06:20;;;;;;;5.03;3.00;;;13.90;99.90;;;;;;4983346;28;20336;-73
2022/11/09 17:09:05;;;;;;;4.25;2.15;;;13.80;99.90;;;;;;4982407;28;20033;-73
2022/11/09 17:11:49;;;;;;;4.40;2.22;;;13.90;99.90;;;;;;4983750;28;20343;-74
2022/11/09 17:14:34;;;;;;;3.80;1.80;;;13.80;99.90;;;;;;4981910;28;20338;-73
2022/11/09 17:17:18;;;;;;;3.70;1.55;;;13.90;99.90;;;;;;4982159;28;20090;-75
2022/11/09 17:20:05;;;;;;;4.90;2.50;;;13.80;99.90;;;;;;4967345;28;20114;-73
2022/11/09 17:22:51;;;;;;;8.95;6.88;;;13.80;99.90;;;;;;4982475;28;20089;-72
2022/11/09 17:25:37;;;;;;;4.45;1.80;;;13.80;99.90;;;;;;4982151;28;20093;-74
2022/11/09 17:28:26;;;;;;;3.40;1.52;;;13.80;99.90;;;;;;4981776;28;20132;-74
2022/11/09 17:31:19;;;;;;;4.18;1.90;;;13.80;99.90;;;;;;4982128;28;20045;-74
2022/11/09 17:34:03;;;;;;;3.83;2.00;;;13.80;99.90;;;;;;4980989;28;20097;-73
2022/11/09 17:36:47;;;;;;;4.72;1.98;;;13.80;99.90;;;;;;4981509;28;20038;-73
2022/11/09 17:39:32;;;;;;;5.32;3.50;;;13.80;99.90;;;;;;4966626;28;20029;-73
2022/11/09 17:42:16;;;;;;;7.00;3.30;;;13.80;99.90;;;;;;4981935;28;20128;-73
2022/11/09 17:45:05;;;;;;;7.90;3.70;;;13.70;99.90;;;;;;4968103;28;20033;-73
2022/11/09 17:47:52;;;;;;;5.13;3.17;;;13.70;99.90;;;;;;4983068;28;20037;-73
2022/11/09 17:50:36;;;;;;;5.97;2.95;;;13.60;99.90;;;;;;4985175;28;20034;-75
2022/11/09 17:53:21;;;;;;;4.90;2.97;;;13.60;99.90;;;;;;4985107;28;20034;-74
2022/11/09 17:56:07;;;;;;;7.07;3.58;;;13.50;99.90;;;;;;4983313;28;20089;-75
2022/11/09 17:58:55;;;;;;;7.90;4.35;;;13.60;99.90;;;;;;4984567;28;20454;-74
2022/11/09 18:01:40;;;;;;;11.82;5.55;;;13.50;99.90;;;;;;4985220;28;20030;-74
2022/11/09 18:04:24;;;;;;;6.72;4.15;;;13.50;99.90;;;;;;4984775;28;20347;-77
2022/11/09 18:07:08;;;;;;;15.60;10.55;;;13.40;99.90;;;;;;4985217;28;20033;-73
2022/11/09 18:09:52;;;;;;;10.25;6.35;;;13.40;99.90;;;;;;4985104;28;20069;-75
2022/11/09 18:12:37;;;;;;;9.38;4.75;;;13.50;99.90;;;;;;4984682;28;20026;-76
2022/11/09 18:15:22;;;;;;;6.63;4.05;;;13.40;99.90;;;;;;4984619;28;20078;-76
2022/11/09 18:18:06;;;;;;;16.77;8.65;;;13.40;99.90;;;;;;4985064;28;20381;-73
2022/11/09 18:20:50;;;;;;;30.10;14.13;;;13.40;99.90;;;;;;4985132;28;20092;-73
2022/11/09 18:23:35;;;;;;;13.05;7.70;;;13.30;99.90;;;;;;4984793;28;20209;-74
2022/11/09 18:26:20;;;;;;;8.02;5.13;;;13.30;99.90;;;;;;4984437;28;20030;-74
2022/11/09 18:29:04;;;;;;;8.10;4.13;;;13.30;99.90;;;;;;4985793;28;20034;-74
2022/11/09 18:31:48;;;;;;;7.88;4.50;;;13.30;99.90;;;;;;4983891;28;20061;-75
2022/11/09 18:34:37;;;;;;;10.15;4.32;;;13.20;99.90;;;;;;4984483;28;20041;-74
2022/11/09 18:37:22;;;;;;;8.80;4.97;;;13.20;99.90;;;;;;4983309;28;20073;-71
2022/11/09 18:40:07;;;;;;;7.95;5.15;;;13.20;99.90;;;;;;4984599;28;20073;-73
2022/11/09 18:42:55;;;;;;;9.07;3.47;;;13.20;99.90;;;;;;4984651;28;20379;-74
2022/11/09 18:45:39;;;;;;;5.97;3.90;;;13.10;99.90;;;;;;4984242;28;20085;-73
2022/11/09 18:48:24;;;;;;;6.32;3.78;;;13.10;99.90;;;;;;4984054;28;20280;-75
2022/11/09 18:51:10;;;;;;;4.78;3.13;;;13.20;99.90;;;;;;4969757;28;20065;-72
2022/11/09 18:53:54;;;;;;;5.63;3.35;;;13.20;99.90;;;;;;4984326;28;20102;-74
2022/11/09 18:56:38;;;;;;;5.47;3.75;;;13.20;99.90;;;;;;4968943;28;20154;-74
2022/11/09 18:59:23;;;;;;;5.40;3.25;;;13.20;99.90;;;;;;4984229;28;20278;-75
2022/11/09 19:02:11;;;;;;;4.32;2.80;;;13.20;99.90;;;;;;4984275;28;20093;-75
2022/11/09 19:04:55;;;;;;;6.93;3.88;;;13.30;99.90;;;;;;4969773;28;20592;-73
2022/11/09 19:07:43;;;;;;;5.85;2.97;;;13.20;99.90;;;;;;4983724;28;20105;-74
2022/11/09 19:10:28;;;;;;;6.60;3.70;;;13.20;99.90;;;;;;4982851;28;20041;-73
2022/11/09 19:13:14;;;;;;;6.82;3.97;;;13.20;99.90;;;;;;4984236;28;20038;-74
2022/11/09 19:15:59;;;;;;;7.20;4.50;;;13.10;99.90;;;;;;4984244;28;20041;-75
2022/11/09 19:18:46;;;;;;;7.25;3.70;;;13.10;99.90;;;;;;4983556;28;20065;-73
2022/11/09 19:21:44;;;;;;;7.38;3.72;;;13.10;99.90;;;;;;4983583;28;20266;-74
2022/11/09 19:24:29;;;;;;;3.15;2.20;;;13.10;99.90;;;;;;4983262;28;20122;-73
2022/11/09 19:27:14;;;;;;;4.15;2.35;;;13.20;99.90;;;;;;4983855;28;20102;-74
2022/11/09 19:29:59;;;;;;;6.93;4.10;;;13.20;99.90;;;;;;4983769;28;20074;-74
2022/11/09 19:32:43;;;;;;;7.00;3.63;;;13.20;99.90;;;;;;4983375;28;20025;-73
2022/11/09 19:35:27;;;;;;;4.88;2.70;;;13.20;99.90;;;;;;4983324;28;20070;-74
2022/11/09 19:38:14;;;;;;;6.80;4.18;;;13.20;99.90;;;;;;4983926;28;20540;-76
2022/11/09 19:40:58;;;;;;;4.85;2.97;;;13.20;99.90;;;;;;4983717;28;20344;-75
2022/11/09 19:43:47;;;;;;;7.60;3.42;;;13.20;99.90;;;;;;4968715;28;20216;-75
2022/11/09 19:46:33;;;;;;;4.22;2.40;;;13.20;99.90;;;;;;4982127;28;20151;-75
2022/11/09 19:49:17;;;;;;;4.55;2.17;;;13.20;99.90;;;;;;4983686;28;20038;-74
2022/11/09 19:52:04;;;;;;;4.78;2.47;;;13.20;99.90;;;;;;4983416;28;20053;-75
2022/11/09 19:54:48;;;;;;;4.47;2.70;;;13.20;99.90;;;;;;4968851;28;20042;-73
2022/11/09 19:57:33;;;;;;;4.55;2.30;;;13.20;99.90;;;;;;4976752;28;20041;-74
2022/11/09 20:00:17;;;;;;;3.90;1.67;;;13.20;99.90;;;;;;4968825;28;20030;-72
2022/11/09 20:03:03;;;;;;;5.35;3.30;;;13.20;99.90;;;;;;4976269;28;20122;-74
2022/11/09 20:05:52;;;;;;;3.60;1.90;;;13.20;99.90;;;;;;4964146;29;20046;-76
2022/11/09 20:08:37;;;;;;;4.55;2.15;;;13.20;99.90;;;;;;4963458;29;20318;-73
2022/11/09 20:14:26;;;;;;;3.60;1.83;;;13.20;99.90;;;;;;4963214;29;20289;-74
2022/11/09 20:17:11;;;;;;;3.65;1.70;;;13.10;99.90;;;;;;4963784;29;20078;-74
2022/11/09 20:19:55;;;;;;;4.68;1.77;;;13.10;99.90;;;;;;4964042;29;20146;-74
2022/11/09 20:22:40;;;;;;;4.35;1.70;;;13.10;99.90;;;;;;4963923;29;20266;-75
2022/11/09 20:25:25;;;;;;;2.75;1.48;;;13.00;99.90;;;;;;4963107;29;20082;-73
2022/11/09 20:28:09;;;;;;;2.80;1.38;;;13.00;99.90;;;;;;4976242;28;20222;-74
2022/11/09 20:30:55;;;;;;;2.50;1.27;;;13.00;99.90;;;;;;4963622;29;20343;-74